sensor_id;sensor_type;location;lat;lon;timestamp;P1;durP1;ratioP1;P2;durP2;ratioP2
70342;SDS011;57767;42.068;24.752;2022-09-09T00:00:34;10.73;;;5.20;;
70342;SDS011;57767;42.068;24.752;2022-09-09T00:02:42;8.13;;;5.25;;
70342;SDS011;57767;42.068;24.752;2022-09-09T00:05:36;7.90;;;5.60;;
70342;SDS011;57767;42.068;24.752;2022-09-09T00:08:06;10.30;;;6.20;;
70342;SDS011;57767;42.068;24.752;2022-09-09T00:09:19;7.60;;;5.75;;
70342;SDS011;57767;42.068;24.752;2022-09-09T00:11:26;10.93;;;6.05;;
70342;SDS011;57767;42.068;24.752;2022-09-09T00:12:10;9.05;;;6.60;;
70342;SDS011;57767;42.068;24.752;2022-09-09T00:13:31;7.70;;;6.45;;
70342;SDS011;57767;42.068;24.752;2022-09-09T00:16:35;10.43;;;6.72;;
70342;SDS011;57767;42.068;24.752;2022-09-09T00:17:38;9.38;;;6.88;;
70342;SDS011;57767;42.068;24.752;2022-09-09T00:20:14;8.25;;;6.57;;
70342;SDS011;57767;42.068;24.752;2022-09-09T00:21:37;9.70;;;7.20;;
70342;SDS011;57767;42.068;24.752;2022-09-09T00:22:42;9.65;;;6.93;;
70342;SDS011;57767;42.068;24.752;2022-09-09T00:24:39;6.72;;;6.13;;
70342;SDS011;57767;42.068;24.752;2022-09-09T00:26:53;6.13;;;5.50;;
70342;SDS011;57767;42.068;24.752;2022-09-09T00:28:13;7.63;;;5.90;;
70342;SDS011;57767;42.068;24.752;2022-09-09T00:29:22;7.55;;;5.50;;
70342;SDS011;57767;42.068;24.752;2022-09-09T00:30:29;6.63;;;5.30;;
70342;SDS011;57767;42.068;24.752;2022-09-09T00:31:35;6.80;;;6.05;;
70342;SDS011;57767;42.068;24.752;2022-09-09T00:32:38;7.25;;;6.10;;
70342;SDS011;57767;42.068;24.752;2022-09-09T00:33:40;7.22;;;5.05;;
70342;SDS011;57767;42.068;24.752;2022-09-09T00:34:47;6.13;;;5.13;;
70342;SDS011;57767;42.068;24.752;2022-09-09T00:35:57;6.78;;;5.18;;
70342;SDS011;57767;42.068;24.752;2022-09-09T00:36:59;5.85;;;5.03;;
70342;SDS011;57767;42.068;24.752;2022-09-09T00:38:03;5.72;;;4.97;;
70342;SDS011;57767;42.068;24.752;2022-09-09T00:39:27;7.57;;;5.32;;
70342;SDS011;57767;42.068;24.752;2022-09-09T00:40:35;9.30;;;5.00;;
70342;SDS011;57767;42.068;24.752;2022-09-09T00:44:27;8.90;;;5.53;;
70342;SDS011;57767;42.068;24.752;2022-09-09T00:50:39;6.38;;;5.35;;
70342;SDS011;57767;42.068;24.752;2022-09-09T00:52:09;8.30;;;5.47;;
70342;SDS011;57767;42.068;24.752;2022-09-09T00:54:50;8.40;;;5.75;;
70342;SDS011;57767;42.068;24.752;2022-09-09T00:56:18;7.78;;;5.72;;
70342;SDS011;57767;42.068;24.752;2022-09-09T00:57:28;6.40;;;5.80;;
70342;SDS011;57767;42.068;24.752;2022-09-09T00:58:32;7.85;;;6.47;;
70342;SDS011;57767;42.068;24.752;2022-09-09T00:59:43;8.88;;;5.80;;
70342;SDS011;57767;42.068;24.752;2022-09-09T01:01:04;6.25;;;5.75;;
70342;SDS011;57767;42.068;24.752;2022-09-09T01:02:13;8.18;;;6.82;;
70342;SDS011;57767;42.068;24.752;2022-09-09T01:04:53;11.02;;;6.57;;
70342;SDS011;57767;42.068;24.752;2022-09-09T01:07:16;10.25;;;6.82;;
70342;SDS011;57767;42.068;24.752;2022-09-09T01:10:56;10.02;;;7.18;;
70342;SDS011;57767;42.068;24.752;2022-09-09T01:12:05;8.80;;;7.43;;
70342;SDS011;57767;42.068;24.752;2022-09-09T01:13:20;11.30;;;7.90;;
70342;SDS011;57767;42.068;24.752;2022-09-09T01:15:35;7.85;;;7.05;;
70342;SDS011;57767;42.068;24.752;2022-09-09T01:16:39;8.20;;;7.15;;
70342;SDS011;57767;42.068;24.752;2022-09-09T01:18:53;8.18;;;7.15;;
70342;SDS011;57767;42.068;24.752;2022-09-09T01:20:10;8.27;;;7.47;;
70342;SDS011;57767;42.068;24.752;2022-09-09T01:24:09;9.05;;;7.75;;
70342;SDS011;57767;42.068;24.752;2022-09-09T01:27:02;11.52;;;7.55;;
70342;SDS011;57767;42.068;24.752;2022-09-09T01:28:08;8.85;;;7.95;;
70342;SDS011;57767;42.068;24.752;2022-09-09T01:29:16;9.63;;;8.52;;
70342;SDS011;57767;42.068;24.752;2022-09-09T01:30:19;10.23;;;8.45;;
70342;SDS011;57767;42.068;24.752;2022-09-09T01:31:34;9.25;;;8.35;;
70342;SDS011;57767;42.068;24.752;2022-09-09T01:32:46;9.07;;;8.10;;
70342;SDS011;57767;42.068;24.752;2022-09-09T01:33:50;9.32;;;8.38;;
70342;SDS011;57767;42.068;24.752;2022-09-09T01:34:52;9.98;;;8.38;;
70342;SDS011;57767;42.068;24.752;2022-09-09T01:35:55;9.35;;;8.43;;
70342;SDS011;57767;42.068;24.752;2022-09-09T01:38:10;9.20;;;8.20;;
70342;SDS011;57767;42.068;24.752;2022-09-09T01:39:12;11.73;;;8.40;;
70342;SDS011;57767;42.068;24.752;2022-09-09T01:40:14;11.35;;;9.05;;
70342;SDS011;57767;42.068;24.752;2022-09-09T01:41:16;12.35;;;8.43;;
70342;SDS011;57767;42.068;24.752;2022-09-09T01:42:18;10.45;;;8.73;;
70342;SDS011;57767;42.068;24.752;2022-09-09T01:43:21;12.43;;;8.70;;
70342;SDS011;57767;42.068;24.752;2022-09-09T01:44:24;11.88;;;8.77;;
70342;SDS011;57767;42.068;24.752;2022-09-09T01:45:27;10.90;;;8.48;;
70342;SDS011;57767;42.068;24.752;2022-09-09T01:46:30;11.70;;;8.23;;
70342;SDS011;57767;42.068;24.752;2022-09-09T01:47:32;9.43;;;8.30;;
70342;SDS011;57767;42.068;24.752;2022-09-09T01:48:33;13.38;;;8.48;;
70342;SDS011;57767;42.068;24.752;2022-09-09T01:49:35;9.75;;;8.35;;
70342;SDS011;57767;42.068;24.752;2022-09-09T01:50:37;11.75;;;8.20;;
70342;SDS011;57767;42.068;24.752;2022-09-09T01:51:39;12.15;;;8.50;;
70342;SDS011;57767;42.068;24.752;2022-09-09T01:52:44;14.93;;;9.10;;
70342;SDS011;57767;42.068;24.752;2022-09-09T01:53:50;11.63;;;8.80;;
70342;SDS011;57767;42.068;24.752;2022-09-09T01:54:51;9.57;;;8.55;;
70342;SDS011;57767;42.068;24.752;2022-09-09T01:56:28;11.00;;;8.82;;
70342;SDS011;57767;42.068;24.752;2022-09-09T01:57:46;9.98;;;6.93;;
70342;SDS011;57767;42.068;24.752;2022-09-09T01:59:07;9.30;;;8.27;;
70342;SDS011;57767;42.068;24.752;2022-09-09T02:00:24;11.55;;;6.85;;
70342;SDS011;57767;42.068;24.752;2022-09-09T02:03:53;8.82;;;6.13;;
70342;SDS011;57767;42.068;24.752;2022-09-09T02:05:05;8.15;;;5.80;;
70342;SDS011;57767;42.068;24.752;2022-09-09T02:07:41;10.40;;;6.20;;
70342;SDS011;57767;42.068;24.752;2022-09-09T02:08:49;7.65;;;6.07;;
70342;SDS011;57767;42.068;24.752;2022-09-09T02:10:05;6.90;;;6.15;;
70342;SDS011;57767;42.068;24.752;2022-09-09T02:11:19;7.75;;;6.93;;
70342;SDS011;57767;42.068;24.752;2022-09-09T02:12:22;7.22;;;6.47;;
70342;SDS011;57767;42.068;24.752;2022-09-09T02:13:26;8.70;;;6.20;;
70342;SDS011;57767;42.068;24.752;2022-09-09T02:14:31;8.10;;;7.30;;
70342;SDS011;57767;42.068;24.752;2022-09-09T02:15:42;12.93;;;7.95;;
70342;SDS011;57767;42.068;24.752;2022-09-09T02:16:52;11.93;;;7.70;;
70342;SDS011;57767;42.068;24.752;2022-09-09T02:17:58;8.60;;;7.70;;
70342;SDS011;57767;42.068;24.752;2022-09-09T02:19:14;10.13;;;8.00;;
70342;SDS011;57767;42.068;24.752;2022-09-09T02:20:27;10.30;;;9.15;;
70342;SDS011;57767;42.068;24.752;2022-09-09T02:21:35;9.10;;;8.07;;
70342;SDS011;57767;42.068;24.752;2022-09-09T02:22:38;11.23;;;8.70;;
70342;SDS011;57767;42.068;24.752;2022-09-09T02:23:43;10.75;;;8.15;;
70342;SDS011;57767;42.068;24.752;2022-09-09T02:24:48;9.40;;;8.20;;
70342;SDS011;57767;42.068;24.752;2022-09-09T02:25:53;11.23;;;7.20;;
70342;SDS011;57767;42.068;24.752;2022-09-09T02:26:59;10.65;;;7.25;;
70342;SDS011;57767;42.068;24.752;2022-09-09T02:28:04;9.23;;;7.07;;
70342;SDS011;57767;42.068;24.752;2022-09-09T02:29:22;7.85;;;7.00;;
70342;SDS011;57767;42.068;24.752;2022-09-09T02:30:35;9.38;;;6.47;;
70342;SDS011;57767;42.068;24.752;2022-09-09T02:31:39;7.18;;;6.35;;
70342;SDS011;57767;42.068;24.752;2022-09-09T02:32:43;9.30;;;6.43;;
70342;SDS011;57767;42.068;24.752;2022-09-09T02:33:51;10.15;;;6.10;;
70342;SDS011;57767;42.068;24.752;2022-09-09T02:35:12;7.55;;;6.47;;
70342;SDS011;57767;42.068;24.752;2022-09-09T02:36:15;9.93;;;6.10;;
70342;SDS011;57767;42.068;24.752;2022-09-09T02:37:19;6.35;;;5.68;;
70342;SDS011;57767;42.068;24.752;2022-09-09T02:38:24;7.15;;;6.53;;
70342;SDS011;57767;42.068;24.752;2022-09-09T02:39:30;6.75;;;6.15;;
70342;SDS011;57767;42.068;24.752;2022-09-09T02:40:31;6.88;;;5.63;;
70342;SDS011;57767;42.068;24.752;2022-09-09T02:41:34;9.90;;;5.60;;
70342;SDS011;57767;42.068;24.752;2022-09-09T02:42:38;7.78;;;6.25;;
70342;SDS011;57767;42.068;24.752;2022-09-09T02:43:41;6.85;;;5.80;;
70342;SDS011;57767;42.068;24.752;2022-09-09T02:44:43;6.90;;;6.20;;
70342;SDS011;57767;42.068;24.752;2022-09-09T02:48:47;6.55;;;5.95;;
70342;SDS011;57767;42.068;24.752;2022-09-09T02:52:38;9.13;;;6.25;;
70342;SDS011;57767;42.068;24.752;2022-09-09T02:54:06;8.07;;;6.55;;
70342;SDS011;57767;42.068;24.752;2022-09-09T02:55:24;11.52;;;7.10;;
70342;SDS011;57767;42.068;24.752;2022-09-09T02:56:31;10.65;;;7.35;;
70342;SDS011;57767;42.068;24.752;2022-09-09T02:57:37;11.65;;;7.10;;
70342;SDS011;57767;42.068;24.752;2022-09-09T02:58:40;8.25;;;7.20;;
70342;SDS011;57767;42.068;24.752;2022-09-09T02:59:43;10.02;;;7.13;;
70342;SDS011;57767;42.068;24.752;2022-09-09T03:00:46;8.23;;;7.43;;
70342;SDS011;57767;42.068;24.752;2022-09-09T03:01:49;10.50;;;7.68;;
70342;SDS011;57767;42.068;24.752;2022-09-09T03:02:52;16.17;;;7.57;;
70342;SDS011;57767;42.068;24.752;2022-09-09T03:03:55;11.23;;;8.15;;
70342;SDS011;57767;42.068;24.752;2022-09-09T03:04:57;9.32;;;7.68;;
70342;SDS011;57767;42.068;24.752;2022-09-09T03:05:59;10.68;;;7.93;;
70342;SDS011;57767;42.068;24.752;2022-09-09T03:07:01;9.55;;;7.97;;
70342;SDS011;57767;42.068;24.752;2022-09-09T03:08:04;9.50;;;8.20;;
70342;SDS011;57767;42.068;24.752;2022-09-09T03:09:06;13.30;;;7.20;;
70342;SDS011;57767;42.068;24.752;2022-09-09T03:10:10;9.95;;;8.40;;
70342;SDS011;57767;42.068;24.752;2022-09-09T03:11:11;10.32;;;8.75;;
70342;SDS011;57767;42.068;24.752;2022-09-09T03:12:15;11.20;;;8.32;;
70342;SDS011;57767;42.068;24.752;2022-09-09T03:13:17;8.98;;;8.10;;
70342;SDS011;57767;42.068;24.752;2022-09-09T03:14:20;8.40;;;7.28;;
70342;SDS011;57767;42.068;24.752;2022-09-09T03:15:25;10.45;;;7.47;;
70342;SDS011;57767;42.068;24.752;2022-09-09T03:16:31;13.32;;;7.65;;
70342;SDS011;57767;42.068;24.752;2022-09-09T03:17:34;9.68;;;8.68;;
70342;SDS011;57767;42.068;24.752;2022-09-09T03:18:36;8.50;;;7.60;;
70342;SDS011;57767;42.068;24.752;2022-09-09T03:19:38;9.00;;;7.53;;
70342;SDS011;57767;42.068;24.752;2022-09-09T03:20:41;9.75;;;8.13;;
70342;SDS011;57767;42.068;24.752;2022-09-09T03:21:43;9.38;;;7.75;;
70342;SDS011;57767;42.068;24.752;2022-09-09T03:22:45;10.45;;;7.72;;
70342;SDS011;57767;42.068;24.752;2022-09-09T03:23:47;11.27;;;7.88;;
70342;SDS011;57767;42.068;24.752;2022-09-09T03:24:48;11.95;;;7.07;;
70342;SDS011;57767;42.068;24.752;2022-09-09T03:25:50;9.00;;;8.10;;
70342;SDS011;57767;42.068;24.752;2022-09-09T03:26:53;11.60;;;7.78;;
70342;SDS011;57767;42.068;24.752;2022-09-09T03:27:57;8.93;;;7.25;;
70342;SDS011;57767;42.068;24.752;2022-09-09T03:28:58;10.10;;;7.50;;
70342;SDS011;57767;42.068;24.752;2022-09-09T03:30:01;10.57;;;7.90;;
70342;SDS011;57767;42.068;24.752;2022-09-09T03:31:04;10.27;;;8.13;;
70342;SDS011;57767;42.068;24.752;2022-09-09T03:32:07;13.00;;;7.93;;
70342;SDS011;57767;42.068;24.752;2022-09-09T03:33:11;11.27;;;7.03;;
70342;SDS011;57767;42.068;24.752;2022-09-09T03:34:13;15.40;;;7.85;;
70342;SDS011;57767;42.068;24.752;2022-09-09T03:35:15;21.95;;;7.68;;
70342;SDS011;57767;42.068;24.752;2022-09-09T03:36:17;17.23;;;7.75;;
70342;SDS011;57767;42.068;24.752;2022-09-09T03:37:19;11.85;;;8.10;;
70342;SDS011;57767;42.068;24.752;2022-09-09T03:38:21;12.38;;;8.70;;
70342;SDS011;57767;42.068;24.752;2022-09-09T03:39:23;11.15;;;7.53;;
70342;SDS011;57767;42.068;24.752;2022-09-09T03:40:24;16.30;;;8.40;;
70342;SDS011;57767;42.068;24.752;2022-09-09T03:41:26;12.43;;;8.18;;
70342;SDS011;57767;42.068;24.752;2022-09-09T03:42:28;12.27;;;8.48;;
70342;SDS011;57767;42.068;24.752;2022-09-09T03:43:31;11.90;;;7.97;;
70342;SDS011;57767;42.068;24.752;2022-09-09T03:44:33;8.65;;;7.85;;
70342;SDS011;57767;42.068;24.752;2022-09-09T03:45:35;10.35;;;8.02;;
70342;SDS011;57767;42.068;24.752;2022-09-09T03:46:37;8.50;;;7.68;;
70342;SDS011;57767;42.068;24.752;2022-09-09T03:47:39;9.93;;;8.40;;
70342;SDS011;57767;42.068;24.752;2022-09-09T03:48:41;11.43;;;8.45;;
70342;SDS011;57767;42.068;24.752;2022-09-09T03:49:43;11.35;;;7.95;;
70342;SDS011;57767;42.068;24.752;2022-09-09T03:50:45;9.65;;;7.80;;
70342;SDS011;57767;42.068;24.752;2022-09-09T03:51:48;11.45;;;7.93;;
70342;SDS011;57767;42.068;24.752;2022-09-09T03:52:50;8.13;;;7.30;;
70342;SDS011;57767;42.068;24.752;2022-09-09T03:53:51;10.70;;;8.05;;
70342;SDS011;57767;42.068;24.752;2022-09-09T03:54:57;10.88;;;7.72;;
70342;SDS011;57767;42.068;24.752;2022-09-09T03:55:59;9.18;;;7.72;;
70342;SDS011;57767;42.068;24.752;2022-09-09T03:57:02;9.52;;;7.85;;
70342;SDS011;57767;42.068;24.752;2022-09-09T03:58:04;10.18;;;7.85;;
70342;SDS011;57767;42.068;24.752;2022-09-09T03:59:06;9.93;;;8.32;;
70342;SDS011;57767;42.068;24.752;2022-09-09T04:00:07;8.85;;;7.45;;
70342;SDS011;57767;42.068;24.752;2022-09-09T04:01:11;11.43;;;7.90;;
70342;SDS011;57767;42.068;24.752;2022-09-09T04:02:15;8.82;;;7.43;;
70342;SDS011;57767;42.068;24.752;2022-09-09T04:03:16;9.48;;;8.10;;
70342;SDS011;57767;42.068;24.752;2022-09-09T04:04:18;10.38;;;7.88;;
70342;SDS011;57767;42.068;24.752;2022-09-09T04:05:21;8.50;;;7.65;;
70342;SDS011;57767;42.068;24.752;2022-09-09T04:06:22;12.88;;;8.32;;
70342;SDS011;57767;42.068;24.752;2022-09-09T04:07:25;9.15;;;7.97;;
70342;SDS011;57767;42.068;24.752;2022-09-09T04:08:28;11.73;;;7.93;;
70342;SDS011;57767;42.068;24.752;2022-09-09T04:09:33;8.73;;;7.63;;
70342;SDS011;57767;42.068;24.752;2022-09-09T04:10:34;11.82;;;7.88;;
70342;SDS011;57767;42.068;24.752;2022-09-09T04:11:39;12.05;;;7.78;;
70342;SDS011;57767;42.068;24.752;2022-09-09T04:12:41;10.48;;;7.65;;
70342;SDS011;57767;42.068;24.752;2022-09-09T04:13:49;9.25;;;7.82;;
70342;SDS011;57767;42.068;24.752;2022-09-09T04:14:50;10.27;;;7.43;;
70342;SDS011;57767;42.068;24.752;2022-09-09T04:15:53;9.73;;;8.43;;
70342;SDS011;57767;42.068;24.752;2022-09-09T04:16:56;11.30;;;8.43;;
70342;SDS011;57767;42.068;24.752;2022-09-09T04:17:58;12.40;;;8.55;;
70342;SDS011;57767;42.068;24.752;2022-09-09T04:19:00;11.90;;;8.60;;
70342;SDS011;57767;42.068;24.752;2022-09-09T04:20:02;10.40;;;8.75;;
70342;SDS011;57767;42.068;24.752;2022-09-09T04:21:04;12.93;;;8.77;;
70342;SDS011;57767;42.068;24.752;2022-09-09T04:22:08;9.23;;;8.10;;
70342;SDS011;57767;42.068;24.752;2022-09-09T04:23:10;11.70;;;8.75;;
70342;SDS011;57767;42.068;24.752;2022-09-09T04:24:12;10.90;;;8.07;;
70342;SDS011;57767;42.068;24.752;2022-09-09T04:25:14;11.52;;;8.80;;
70342;SDS011;57767;42.068;24.752;2022-09-09T04:26:16;9.77;;;8.38;;
70342;SDS011;57767;42.068;24.752;2022-09-09T04:27:18;16.70;;;9.02;;
70342;SDS011;57767;42.068;24.752;2022-09-09T04:28:21;10.95;;;9.15;;
70342;SDS011;57767;42.068;24.752;2022-09-09T04:29:24;10.32;;;8.60;;
70342;SDS011;57767;42.068;24.752;2022-09-09T04:30:26;9.70;;;8.40;;
70342;SDS011;57767;42.068;24.752;2022-09-09T04:31:28;11.95;;;8.85;;
70342;SDS011;57767;42.068;24.752;2022-09-09T04:32:32;15.27;;;9.27;;
70342;SDS011;57767;42.068;24.752;2022-09-09T04:33:34;10.15;;;8.15;;
70342;SDS011;57767;42.068;24.752;2022-09-09T04:34:40;15.73;;;9.05;;
70342;SDS011;57767;42.068;24.752;2022-09-09T04:35:49;12.88;;;8.50;;
70342;SDS011;57767;42.068;24.752;2022-09-09T04:36:51;12.57;;;8.25;;
70342;SDS011;57767;42.068;24.752;2022-09-09T04:37:53;13.90;;;7.90;;
70342;SDS011;57767;42.068;24.752;2022-09-09T04:38:55;13.02;;;8.13;;
70342;SDS011;57767;42.068;24.752;2022-09-09T04:39:56;10.77;;;8.10;;
70342;SDS011;57767;42.068;24.752;2022-09-09T04:40:58;11.65;;;7.95;;
70342;SDS011;57767;42.068;24.752;2022-09-09T04:42:00;11.02;;;7.88;;
70342;SDS011;57767;42.068;24.752;2022-09-09T04:43:03;8.82;;;7.25;;
70342;SDS011;57767;42.068;24.752;2022-09-09T04:44:06;12.80;;;7.70;;
70342;SDS011;57767;42.068;24.752;2022-09-09T04:45:07;13.82;;;7.22;;
70342;SDS011;57767;42.068;24.752;2022-09-09T04:46:12;8.05;;;7.35;;
70342;SDS011;57767;42.068;24.752;2022-09-09T04:47:13;9.80;;;7.50;;
70342;SDS011;57767;42.068;24.752;2022-09-09T04:48:15;11.90;;;7.57;;
70342;SDS011;57767;42.068;24.752;2022-09-09T04:49:17;12.93;;;7.10;;
70342;SDS011;57767;42.068;24.752;2022-09-09T04:50:19;10.65;;;8.00;;
70342;SDS011;57767;42.068;24.752;2022-09-09T04:51:21;9.07;;;7.47;;
70342;SDS011;57767;42.068;24.752;2022-09-09T04:52:23;11.77;;;7.18;;
70342;SDS011;57767;42.068;24.752;2022-09-09T04:53:25;7.88;;;7.05;;
70342;SDS011;57767;42.068;24.752;2022-09-09T04:54:27;10.75;;;7.53;;
70342;SDS011;57767;42.068;24.752;2022-09-09T04:55:29;9.65;;;7.15;;
70342;SDS011;57767;42.068;24.752;2022-09-09T04:56:31;13.75;;;7.65;;
70342;SDS011;57767;42.068;24.752;2022-09-09T04:57:34;11.40;;;7.05;;
70342;SDS011;57767;42.068;24.752;2022-09-09T04:58:36;12.35;;;6.75;;
70342;SDS011;57767;42.068;24.752;2022-09-09T04:59:38;10.20;;;7.28;;
70342;SDS011;57767;42.068;24.752;2022-09-09T05:00:40;10.82;;;7.22;;
70342;SDS011;57767;42.068;24.752;2022-09-09T05:01:43;12.68;;;7.38;;
70342;SDS011;57767;42.068;24.752;2022-09-09T05:02:45;15.68;;;6.65;;
70342;SDS011;57767;42.068;24.752;2022-09-09T05:03:48;11.85;;;6.85;;
70342;SDS011;57767;42.068;24.752;2022-09-09T05:04:50;8.98;;;7.38;;
70342;SDS011;57767;42.068;24.752;2022-09-09T05:05:51;10.68;;;7.25;;
70342;SDS011;57767;42.068;24.752;2022-09-09T05:06:54;13.60;;;7.30;;
70342;SDS011;57767;42.068;24.752;2022-09-09T05:08:04;8.48;;;7.13;;
70342;SDS011;57767;42.068;24.752;2022-09-09T05:09:07;9.80;;;7.57;;
70342;SDS011;57767;42.068;24.752;2022-09-09T05:10:09;9.05;;;6.70;;
70342;SDS011;57767;42.068;24.752;2022-09-09T05:12:20;11.90;;;7.30;;
70342;SDS011;57767;42.068;24.752;2022-09-09T05:13:25;11.80;;;6.63;;
70342;SDS011;57767;42.068;24.752;2022-09-09T05:14:29;7.18;;;6.47;;
70342;SDS011;57767;42.068;24.752;2022-09-09T05:15:31;11.95;;;6.75;;
70342;SDS011;57767;42.068;24.752;2022-09-09T05:16:33;10.60;;;7.22;;
70342;SDS011;57767;42.068;24.752;2022-09-09T05:17:34;9.10;;;6.97;;
70342;SDS011;57767;42.068;24.752;2022-09-09T05:18:37;9.00;;;6.03;;
70342;SDS011;57767;42.068;24.752;2022-09-09T05:19:39;11.57;;;6.60;;
70342;SDS011;57767;42.068;24.752;2022-09-09T05:20:41;10.55;;;6.22;;
70342;SDS011;57767;42.068;24.752;2022-09-09T05:21:43;8.07;;;6.45;;
70342;SDS011;57767;42.068;24.752;2022-09-09T05:22:45;12.27;;;6.20;;
70342;SDS011;57767;42.068;24.752;2022-09-09T05:23:47;8.57;;;6.68;;
70342;SDS011;57767;42.068;24.752;2022-09-09T05:24:49;11.23;;;6.32;;
70342;SDS011;57767;42.068;24.752;2022-09-09T05:25:57;14.73;;;6.28;;
70342;SDS011;57767;42.068;24.752;2022-09-09T05:26:59;9.25;;;6.00;;
70342;SDS011;57767;42.068;24.752;2022-09-09T05:28:03;12.02;;;6.13;;
70342;SDS011;57767;42.068;24.752;2022-09-09T05:29:05;10.18;;;5.85;;
70342;SDS011;57767;42.068;24.752;2022-09-09T05:30:07;11.32;;;5.95;;
70342;SDS011;57767;42.068;24.752;2022-09-09T05:31:10;6.82;;;5.28;;
70342;SDS011;57767;42.068;24.752;2022-09-09T05:32:14;6.07;;;5.00;;
70342;SDS011;57767;42.068;24.752;2022-09-09T05:33:17;19.25;;;5.63;;
70342;SDS011;57767;42.068;24.752;2022-09-09T05:34:19;6.35;;;4.80;;
70342;SDS011;57767;42.068;24.752;2022-09-09T05:35:21;5.88;;;5.00;;
70342;SDS011;57767;42.068;24.752;2022-09-09T05:36:24;9.35;;;5.45;;
70342;SDS011;57767;42.068;24.752;2022-09-09T05:37:26;7.13;;;5.47;;
70342;SDS011;57767;42.068;24.752;2022-09-09T05:38:28;5.85;;;4.60;;
70342;SDS011;57767;42.068;24.752;2022-09-09T05:39:30;9.43;;;5.10;;
70342;SDS011;57767;42.068;24.752;2022-09-09T05:40:32;10.38;;;5.78;;
70342;SDS011;57767;42.068;24.752;2022-09-09T05:41:33;8.77;;;5.25;;
70342;SDS011;57767;42.068;24.752;2022-09-09T05:42:36;6.72;;;5.18;;
70342;SDS011;57767;42.068;24.752;2022-09-09T05:43:38;8.13;;;5.25;;
70342;SDS011;57767;42.068;24.752;2022-09-09T05:44:40;10.25;;;5.03;;
70342;SDS011;57767;42.068;24.752;2022-09-09T05:45:43;7.10;;;4.80;;
70342;SDS011;57767;42.068;24.752;2022-09-09T05:46:45;7.68;;;5.72;;
70342;SDS011;57767;42.068;24.752;2022-09-09T05:47:51;9.43;;;5.65;;
70342;SDS011;57767;42.068;24.752;2022-09-09T05:48:54;6.10;;;5.03;;
70342;SDS011;57767;42.068;24.752;2022-09-09T05:49:56;8.65;;;5.20;;
70342;SDS011;57767;42.068;24.752;2022-09-09T05:50:58;8.30;;;5.70;;
70342;SDS011;57767;42.068;24.752;2022-09-09T05:52:01;10.18;;;5.78;;
70342;SDS011;57767;42.068;24.752;2022-09-09T05:53:05;10.43;;;5.65;;
70342;SDS011;57767;42.068;24.752;2022-09-09T05:54:06;12.32;;;6.15;;
70342;SDS011;57767;42.068;24.752;2022-09-09T05:55:08;9.30;;;5.38;;
70342;SDS011;57767;42.068;24.752;2022-09-09T05:56:13;11.50;;;5.85;;
70342;SDS011;57767;42.068;24.752;2022-09-09T05:57:17;7.00;;;5.38;;
70342;SDS011;57767;42.068;24.752;2022-09-09T05:58:20;7.65;;;5.40;;
70342;SDS011;57767;42.068;24.752;2022-09-09T05:59:22;8.27;;;5.28;;
70342;SDS011;57767;42.068;24.752;2022-09-09T06:00:25;8.05;;;5.72;;
70342;SDS011;57767;42.068;24.752;2022-09-09T06:01:31;8.13;;;5.53;;
70342;SDS011;57767;42.068;24.752;2022-09-09T06:02:34;9.18;;;5.30;;
70342;SDS011;57767;42.068;24.752;2022-09-09T06:03:39;10.00;;;5.22;;
70342;SDS011;57767;42.068;24.752;2022-09-09T06:04:42;10.85;;;5.43;;
70342;SDS011;57767;42.068;24.752;2022-09-09T06:05:43;8.05;;;5.15;;
70342;SDS011;57767;42.068;24.752;2022-09-09T06:06:45;7.15;;;5.18;;
70342;SDS011;57767;42.068;24.752;2022-09-09T06:07:47;8.77;;;5.30;;
70342;SDS011;57767;42.068;24.752;2022-09-09T06:08:53;6.75;;;4.90;;
70342;SDS011;57767;42.068;24.752;2022-09-09T06:09:56;7.82;;;5.00;;
70342;SDS011;57767;42.068;24.752;2022-09-09T06:11:01;12.40;;;5.47;;
70342;SDS011;57767;42.068;24.752;2022-09-09T06:12:07;6.90;;;4.63;;
70342;SDS011;57767;42.068;24.752;2022-09-09T06:13:10;11.73;;;4.78;;
70342;SDS011;57767;42.068;24.752;2022-09-09T06:14:12;6.75;;;4.88;;
70342;SDS011;57767;42.068;24.752;2022-09-09T06:15:14;10.25;;;4.72;;
70342;SDS011;57767;42.068;24.752;2022-09-09T06:16:16;14.40;;;6.00;;
70342;SDS011;57767;42.068;24.752;2022-09-09T06:17:19;6.15;;;4.55;;
70342;SDS011;57767;42.068;24.752;2022-09-09T06:18:21;7.82;;;5.00;;
70342;SDS011;57767;42.068;24.752;2022-09-09T06:19:23;8.30;;;5.00;;
70342;SDS011;57767;42.068;24.752;2022-09-09T06:20:27;8.90;;;4.78;;
70342;SDS011;57767;42.068;24.752;2022-09-09T06:21:34;11.70;;;4.70;;
70342;SDS011;57767;42.068;24.752;2022-09-09T06:22:40;7.63;;;4.85;;
70342;SDS011;57767;42.068;24.752;2022-09-09T06:23:42;6.28;;;4.30;;
70342;SDS011;57767;42.068;24.752;2022-09-09T06:24:48;9.88;;;4.75;;
70342;SDS011;57767;42.068;24.752;2022-09-09T06:25:49;6.32;;;4.90;;
70342;SDS011;57767;42.068;24.752;2022-09-09T06:26:52;6.47;;;4.65;;
70342;SDS011;57767;42.068;24.752;2022-09-09T06:27:55;7.15;;;4.45;;
70342;SDS011;57767;42.068;24.752;2022-09-09T06:28:57;10.75;;;4.40;;
70342;SDS011;57767;42.068;24.752;2022-09-09T06:29:59;7.85;;;4.55;;
70342;SDS011;57767;42.068;24.752;2022-09-09T06:31:02;6.57;;;4.10;;
70342;SDS011;57767;42.068;24.752;2022-09-09T06:32:05;5.50;;;4.13;;
70342;SDS011;57767;42.068;24.752;2022-09-09T06:33:09;6.70;;;4.40;;
70342;SDS011;57767;42.068;24.752;2022-09-09T06:34:11;7.25;;;4.05;;
70342;SDS011;57767;42.068;24.752;2022-09-09T06:35:14;11.05;;;3.78;;
70342;SDS011;57767;42.068;24.752;2022-09-09T06:36:25;8.35;;;4.00;;
70342;SDS011;57767;42.068;24.752;2022-09-09T06:37:32;8.32;;;3.67;;
70342;SDS011;57767;42.068;24.752;2022-09-09T06:38:34;8.32;;;3.88;;
70342;SDS011;57767;42.068;24.752;2022-09-09T06:39:36;13.45;;;4.03;;
70342;SDS011;57767;42.068;24.752;2022-09-09T06:40:37;6.53;;;3.90;;
70342;SDS011;57767;42.068;24.752;2022-09-09T06:41:39;6.82;;;3.70;;
70342;SDS011;57767;42.068;24.752;2022-09-09T06:42:41;7.25;;;3.78;;
70342;SDS011;57767;42.068;24.752;2022-09-09T06:43:42;9.68;;;4.05;;
70342;SDS011;57767;42.068;24.752;2022-09-09T06:44:44;9.10;;;3.70;;
70342;SDS011;57767;42.068;24.752;2022-09-09T06:45:53;10.32;;;3.83;;
70342;SDS011;57767;42.068;24.752;2022-09-09T06:46:59;8.63;;;3.92;;
70342;SDS011;57767;42.068;24.752;2022-09-09T06:48:01;6.00;;;3.20;;
70342;SDS011;57767;42.068;24.752;2022-09-09T06:49:03;5.88;;;3.58;;
70342;SDS011;57767;42.068;24.752;2022-09-09T06:50:05;7.93;;;3.60;;
70342;SDS011;57767;42.068;24.752;2022-09-09T06:51:10;10.07;;;4.03;;
70342;SDS011;57767;42.068;24.752;2022-09-09T06:52:13;9.55;;;3.65;;
70342;SDS011;57767;42.068;24.752;2022-09-09T06:53:16;5.45;;;3.70;;
70342;SDS011;57767;42.068;24.752;2022-09-09T06:54:20;6.72;;;3.85;;
70342;SDS011;57767;42.068;24.752;2022-09-09T06:55:23;6.10;;;3.60;;
70342;SDS011;57767;42.068;24.752;2022-09-09T06:56:29;9.13;;;3.88;;
70342;SDS011;57767;42.068;24.752;2022-09-09T06:58:41;7.55;;;3.55;;
70342;SDS011;57767;42.068;24.752;2022-09-09T06:59:45;8.82;;;3.70;;
70342;SDS011;57767;42.068;24.752;2022-09-09T07:00:47;7.53;;;3.67;;
70342;SDS011;57767;42.068;24.752;2022-09-09T07:01:49;6.72;;;3.50;;
70342;SDS011;57767;42.068;24.752;2022-09-09T07:02:56;7.20;;;3.40;;
70342;SDS011;57767;42.068;24.752;2022-09-09T07:03:58;7.32;;;3.72;;
70342;SDS011;57767;42.068;24.752;2022-09-09T07:05:00;5.45;;;3.55;;
70342;SDS011;57767;42.068;24.752;2022-09-09T07:06:02;5.57;;;3.50;;